createdAt,value
2023-03-05T00:00:23.596Z,-0.30
2023-03-05T00:02:50.415Z,-0.50
2023-03-05T00:05:17.305Z,-0.50
2023-03-05T00:07:44.130Z,-0.60
2023-03-05T00:10:11.181Z,-0.60
2023-03-05T00:12:38.024Z,-0.70
2023-03-05T00:15:05.476Z,-0.70
2023-03-05T00:17:32.322Z,-0.80
2023-03-05T00:20:01.918Z,-0.90
2023-03-05T00:22:29.048Z,-0.90
2023-03-05T00:24:55.868Z,-0.90
2023-03-05T00:27:22.707Z,-0.90
2023-03-05T00:29:49.570Z,-1.00
2023-03-05T00:32:16.468Z,-1.00
2023-03-05T00:34:43.703Z,-1.10
2023-03-05T00:37:10.605Z,-1.10
2023-03-05T00:39:37.495Z,-1.00
2023-03-05T00:42:04.463Z,-1.10
2023-03-05T00:44:31.188Z,-1.10
2023-03-05T00:46:58.085Z,-1.10
2023-03-05T00:49:24.929Z,-1.00
2023-03-05T00:51:51.899Z,-1.00
2023-03-05T00:54:18.827Z,-1.10
2023-03-05T00:56:45.646Z,-1.20
2023-03-05T00:59:12.504Z,-1.20
2023-03-05T01:01:40.706Z,-1.30
2023-03-05T01:04:07.632Z,-1.20
2023-03-05T01:06:34.412Z,-1.10
2023-03-05T01:09:01.193Z,-1.20
2023-03-05T01:11:28.095Z,-1.20
2023-03-05T01:13:54.959Z,-1.30
2023-03-05T01:16:21.936Z,-1.30
2023-03-05T01:18:48.720Z,-1.30
2023-03-05T01:21:15.500Z,-1.30
2023-03-05T01:23:42.278Z,-1.40
2023-03-05T01:26:09.595Z,-1.30
2023-03-05T01:28:38.219Z,-1.30
2023-03-05T01:31:09.012Z,-1.40
2023-03-05T01:33:35.837Z,-1.50
2023-03-05T01:36:02.694Z,-1.50
2023-03-05T01:38:29.515Z,-1.50
2023-03-05T01:40:56.334Z,-1.50
2023-03-05T01:43:27.116Z,-1.50
2023-03-05T01:46:21.840Z,-1.60
2023-03-05T01:48:54.173Z,-1.50
2023-03-05T01:51:24.969Z,-1.50
2023-03-05T01:53:53.265Z,-1.50
2023-03-05T01:56:20.558Z,-1.50
2023-03-05T01:58:47.564Z,-1.50
2023-03-05T02:01:14.464Z,-1.60
2023-03-05T02:03:42.442Z,-1.60
2023-03-05T02:06:09.736Z,-1.60
2023-03-05T02:08:36.496Z,-1.60
2023-03-05T02:11:03.730Z,-1.60
2023-03-05T02:13:35.699Z,-1.70
2023-03-05T02:16:02.903Z,-1.70
2023-03-05T02:18:29.973Z,-1.60
2023-03-05T02:20:56.669Z,-1.60
2023-03-05T02:23:36.496Z,-1.60
2023-03-05T02:26:08.705Z,-1.50
2023-03-05T02:28:44.626Z,-1.50
2023-03-05T02:31:16.743Z,-1.50
2023-03-05T02:33:44.357Z,-1.60
2023-03-05T02:36:12.112Z,-1.50
2023-03-05T02:38:41.014Z,-1.50
2023-03-05T02:41:08.109Z,-1.50
2023-03-05T02:43:34.963Z,-1.50
2023-03-05T02:46:01.903Z,-1.40
2023-03-05T02:48:28.741Z,-1.40
2023-03-05T02:50:56.398Z,-1.40
2023-03-05T02:53:23.758Z,-1.30
2023-03-05T02:55:50.941Z,-1.30
2023-03-05T02:58:18.258Z,-1.30
2023-03-05T03:00:46.820Z,-1.20
2023-03-05T03:03:14.183Z,-1.20
2023-03-05T03:05:41.317Z,-1.30
2023-03-05T03:08:08.358Z,-1.20
2023-03-05T03:10:35.170Z,-1.30
2023-03-05T03:13:02.033Z,-1.30
2023-03-05T03:15:28.844Z,-1.30
2023-03-05T03:17:55.896Z,-1.30
2023-03-05T03:20:23.737Z,-1.30
2023-03-05T03:22:50.712Z,-1.20
2023-03-05T03:25:22.243Z,-1.30
2023-03-05T03:27:49.125Z,-1.30
2023-03-05T03:30:16.249Z,-1.20
2023-03-05T03:32:43.544Z,-1.20
2023-03-05T03:35:11.247Z,-1.20
2023-03-05T03:37:38.579Z,-1.20
2023-03-05T03:40:06.665Z,-1.20
2023-03-05T03:42:33.590Z,-1.20
2023-03-05T03:45:02.231Z,-1.10
2023-03-05T03:47:30.457Z,-1.20
2023-03-05T03:49:58.769Z,-1.00
2023-03-05T03:52:26.436Z,-1.10
2023-03-05T03:54:53.708Z,-1.10
2023-03-05T03:57:20.577Z,-1.10
2023-03-05T03:59:47.696Z,-1.10
2023-03-05T04:02:14.502Z,-1.10
2023-03-05T04:04:41.397Z,-1.10
2023-03-05T04:07:08.335Z,-1.10
2023-03-05T04:09:35.204Z,-1.00
2023-03-05T04:12:02.024Z,-1.10
2023-03-05T04:14:28.817Z,-1.10
2023-03-05T04:16:55.608Z,-1.00
2023-03-05T04:19:22.532Z,-1.00
2023-03-05T04:21:49.306Z,-1.00
2023-03-05T04:24:16.171Z,-1.10
2023-03-05T04:26:42.984Z,-1.10
2023-03-05T04:29:09.783Z,-1.10
2023-03-05T04:31:36.878Z,-1.10
2023-03-05T04:34:03.711Z,-1.10
2023-03-05T04:36:30.551Z,-1.10
2023-03-05T04:38:57.329Z,-1.10
2023-03-05T04:41:24.115Z,-1.10
2023-03-05T04:43:50.909Z,-1.20
2023-03-05T04:46:17.688Z,-1.10
2023-03-05T04:48:44.470Z,-1.00
2023-03-05T04:51:11.369Z,-1.00
2023-03-05T04:53:38.126Z,-1.00
2023-03-05T04:56:05.345Z,-1.10
2023-03-05T04:58:32.169Z,-1.00
2023-03-05T05:01:03.673Z,-1.00
2023-03-05T05:03:30.817Z,-0.90
2023-03-05T05:05:59.154Z,-0.80
2023-03-05T05:08:26.647Z,-0.80
2023-03-05T05:11:05.930Z,-0.80
2023-03-05T05:13:33.587Z,-0.90
2023-03-05T05:16:00.466Z,-0.90
2023-03-05T05:18:27.471Z,-1.00
2023-03-05T05:20:54.448Z,-0.80
2023-03-05T05:23:21.425Z,-0.90
2023-03-05T05:25:58.851Z,-0.90
2023-03-05T05:28:25.838Z,-0.80
2023-03-05T05:30:52.637Z,-0.80
2023-03-05T05:33:19.968Z,-0.90
2023-03-05T05:35:47.017Z,-0.80
2023-03-05T05:38:14.275Z,-0.80
2023-03-05T05:40:41.127Z,-0.80
2023-03-05T05:43:08.235Z,-0.70
2023-03-05T05:45:37.613Z,-0.70
2023-03-05T05:48:04.761Z,-0.70
2023-03-05T05:50:31.547Z,-0.60
2023-03-05T05:52:58.326Z,-0.50
2023-03-05T05:55:25.086Z,-0.10
2023-03-05T05:57:51.875Z,0.40
2023-03-05T06:00:19.074Z,0.80
2023-03-05T06:02:45.905Z,1.10
2023-03-05T06:05:14.925Z,1.30
2023-03-05T06:07:42.059Z,1.50
2023-03-05T06:10:10.386Z,1.60
2023-03-05T06:12:37.421Z,1.70
2023-03-05T06:15:04.740Z,2.20
2023-03-05T06:17:31.544Z,4.00
2023-03-05T06:19:59.057Z,5.50
2023-03-05T06:22:26.088Z,6.60
2023-03-05T06:24:53.060Z,7.60
2023-03-05T06:27:19.777Z,7.80
2023-03-05T06:29:46.497Z,7.70
2023-03-05T06:32:13.328Z,7.10
2023-03-05T06:34:40.086Z,7.10
2023-03-05T06:37:07.258Z,7.30
2023-03-05T06:39:34.029Z,7.80
2023-03-05T06:42:00.842Z,8.70
2023-03-05T06:44:27.658Z,8.80
2023-03-05T06:46:54.482Z,8.50
2023-03-05T06:49:21.334Z,8.90
2023-03-05T06:51:48.104Z,8.40
2023-03-05T06:54:16.993Z,8.40
2023-03-05T06:56:45.841Z,8.50
2023-03-05T06:59:14.584Z,8.20
2023-03-05T07:01:41.469Z,7.50
2023-03-05T07:04:08.309Z,7.90
2023-03-05T07:06:38.267Z,8.10
2023-03-05T07:09:06.724Z,7.20
2023-03-05T07:11:34.213Z,6.00
2023-03-05T07:14:01.878Z,6.50
2023-03-05T07:16:32.362Z,7.40
2023-03-05T07:19:02.895Z,7.60
2023-03-05T07:21:32.907Z,7.30
2023-03-05T07:24:01.616Z,7.20
2023-03-05T07:26:28.783Z,7.00
2023-03-05T07:28:56.500Z,6.70
2023-03-05T07:31:31.387Z,6.00
2023-03-05T07:33:59.661Z,5.50
2023-03-05T07:36:27.315Z,4.70
2023-03-05T07:38:54.295Z,5.00
2023-03-05T07:41:23.503Z,5.60
2023-03-05T07:43:53.003Z,5.60
2023-03-05T07:46:21.710Z,5.60
2023-03-05T07:48:48.596Z,5.10
2023-03-05T07:51:17.942Z,4.70
2023-03-05T07:53:46.168Z,4.10
2023-03-05T07:56:13.301Z,3.60
2023-03-05T07:58:40.142Z,3.40
2023-03-05T08:01:15.536Z,3.80
2023-03-05T08:03:43.514Z,4.50
2023-03-05T08:06:11.632Z,5.30
2023-03-05T08:08:38.671Z,5.80
2023-03-05T08:11:07.428Z,5.50
2023-03-05T08:13:34.326Z,5.60
2023-03-05T08:16:09.360Z,6.00
2023-03-05T08:18:36.265Z,6.90
2023-03-05T08:21:03.859Z,7.30
2023-03-05T08:23:31.126Z,6.80
2023-03-05T08:25:57.932Z,6.20
2023-03-05T08:28:24.849Z,5.50
2023-03-05T08:30:51.732Z,5.90
2023-03-05T08:33:19.144Z,6.10
2023-03-05T08:35:45.933Z,6.20
2023-03-05T08:38:13.565Z,6.00
2023-03-05T08:40:40.456Z,5.60
2023-03-05T08:43:07.393Z,5.60
2023-03-05T08:45:34.225Z,5.80
2023-03-05T08:48:01.032Z,5.70
2023-03-05T08:50:27.795Z,5.90
2023-03-05T08:52:57.114Z,5.80
2023-03-05T08:55:23.971Z,5.90
2023-03-05T08:57:50.854Z,6.00
2023-03-05T09:00:18.026Z,6.00
2023-03-05T09:02:44.846Z,5.80
2023-03-05T09:05:11.942Z,5.80
2023-03-05T09:07:38.717Z,5.80
2023-03-05T09:10:06.550Z,5.60
2023-03-05T09:12:33.438Z,5.60
2023-03-05T09:15:00.191Z,5.70
2023-03-05T09:17:26.998Z,5.50
2023-03-05T09:19:53.718Z,5.40
2023-03-05T09:22:20.610Z,5.20
2023-03-05T09:24:47.397Z,5.20
2023-03-05T09:27:14.143Z,4.70
2023-03-05T09:29:42.915Z,4.50
2023-03-05T09:32:10.222Z,4.70
2023-03-05T09:34:37.126Z,4.80
2023-03-05T09:37:04.598Z,5.00
2023-03-05T09:39:31.409Z,5.10
2023-03-05T09:42:09.932Z,5.30
2023-03-05T09:45:08.764Z,5.30
2023-03-05T09:47:49.901Z,5.00
2023-03-05T09:50:25.279Z,4.80
2023-03-05T09:52:59.445Z,4.80
2023-03-05T09:55:40.350Z,4.70
2023-03-05T09:58:16.248Z,5.00
2023-03-05T10:00:53.335Z,5.40
2023-03-05T10:03:31.012Z,5.30
2023-03-05T10:06:13.045Z,5.40
2023-03-05T10:09:04.109Z,5.50
2023-03-05T10:11:53.326Z,5.50
2023-03-05T10:14:24.851Z,4.90
2023-03-05T10:17:34.101Z,4.70
2023-03-05T10:20:16.206Z,4.90
2023-03-05T10:23:04.114Z,4.60
2023-03-05T10:25:42.663Z,4.50
2023-03-05T10:28:20.073Z,4.80
2023-03-05T10:30:49.866Z,4.90
2023-03-05T10:33:34.357Z,5.30
2023-03-05T10:36:01.069Z,5.30
2023-03-05T10:38:43.588Z,5.40
2023-03-05T10:41:33.345Z,5.90
2023-03-05T10:44:33.180Z,5.80
2023-03-05T10:47:01.610Z,5.70
2023-03-05T10:49:36.926Z,5.70
2023-03-05T10:52:29.924Z,5.60
2023-03-05T10:54:56.727Z,5.30
2023-03-05T10:57:31.077Z,5.00
2023-03-05T11:00:07.020Z,4.60
2023-03-05T11:02:34.713Z,4.80
2023-03-05T11:05:01.805Z,4.80
2023-03-05T11:07:32.793Z,4.50
2023-03-05T11:10:06.525Z,4.40
2023-03-05T11:12:38.898Z,4.30
2023-03-05T11:15:14.587Z,4.40
2023-03-05T11:17:47.935Z,4.40
2023-03-05T11:20:26.835Z,4.40
2023-03-05T11:23:23.988Z,4.50
2023-03-05T11:25:57.177Z,4.40
2023-03-05T11:28:33.552Z,4.30
2023-03-05T11:31:15.897Z,4.10
2023-03-05T11:34:01.288Z,4.20
2023-03-05T11:36:40.520Z,4.40
2023-03-05T11:39:10.022Z,4.20
2023-03-05T11:41:44.898Z,4.40
2023-03-05T11:44:25.951Z,4.30
2023-03-05T11:47:16.080Z,4.10
2023-03-05T11:49:47.696Z,4.20
2023-03-05T11:52:42.788Z,4.30
2023-03-05T11:55:19.539Z,4.30
2023-03-05T11:58:27.738Z,4.40
2023-03-05T12:00:54.811Z,4.70
2023-03-05T12:03:37.075Z,4.60
2023-03-05T12:06:13.361Z,4.40
2023-03-05T12:08:50.749Z,4.40
2023-03-05T12:11:25.675Z,4.30
2023-03-05T12:13:58.313Z,4.20
2023-03-05T12:16:33.454Z,4.20
2023-03-05T12:19:47.116Z,4.20
2023-03-05T12:22:19.556Z,4.20
2023-03-05T12:24:46.584Z,4.00
2023-03-05T12:27:16.676Z,4.00
2023-03-05T12:29:47.510Z,4.00
2023-03-05T12:32:25.477Z,4.00
2023-03-05T12:35:22.304Z,3.90
2023-03-05T12:37:52.084Z,3.90
2023-03-05T12:40:21.903Z,4.10
2023-03-05T12:42:54.854Z,4.20
2023-03-05T12:45:21.559Z,4.30
2023-03-05T12:47:57.625Z,4.10
2023-03-05T12:50:27.340Z,4.20
2023-03-05T12:52:54.835Z,4.50
2023-03-05T12:55:33.692Z,4.50
2023-03-05T12:58:07.185Z,4.70
2023-03-05T13:01:03.209Z,4.70
2023-03-05T13:03:53.257Z,4.90
2023-03-05T13:06:39.634Z,4.90
2023-03-05T13:09:24.545Z,4.50
2023-03-05T13:11:54.156Z,4.40
2023-03-05T13:14:43.448Z,4.20
2023-03-05T13:17:47.511Z,4.20
2023-03-05T13:20:26.370Z,4.10
2023-03-05T13:23:24.774Z,4.20
2023-03-05T13:26:15.353Z,4.60
2023-03-05T13:28:44.958Z,5.00
2023-03-05T13:31:19.198Z,4.80
2023-03-05T13:34:13.642Z,4.90
2023-03-05T13:36:45.591Z,5.20
2023-03-05T13:39:19.814Z,5.20
2023-03-05T13:42:01.106Z,4.90
2023-03-05T13:44:29.562Z,4.80
2023-03-05T13:47:15.020Z,4.40
2023-03-05T13:49:42.012Z,4.10
2023-03-05T13:52:08.816Z,4.00
2023-03-05T13:54:35.727Z,3.90
2023-03-05T13:57:08.382Z,3.80
2023-03-05T13:59:39.132Z,3.80
2023-03-05T14:02:20.752Z,3.90
2023-03-05T14:04:48.217Z,4.10
2023-03-05T14:07:20.954Z,4.00
2023-03-05T14:09:56.711Z,3.70
2023-03-05T14:12:43.621Z,3.60
2023-03-05T14:15:29.350Z,3.60
2023-03-05T14:18:18.069Z,3.40
2023-03-05T14:21:10.187Z,3.40
2023-03-05T14:23:36.902Z,3.40
2023-03-05T14:26:26.919Z,3.30
2023-03-05T14:29:11.559Z,3.20
2023-03-05T14:32:00.366Z,3.20
2023-03-05T14:34:35.647Z,3.10
2023-03-05T14:37:05.278Z,3.10
2023-03-05T14:39:50.773Z,3.00
2023-03-05T14:42:38.809Z,2.90
2023-03-05T14:45:17.900Z,2.90
2023-03-05T14:47:45.206Z,3.00
2023-03-05T14:50:17.556Z,2.90
2023-03-05T14:52:45.913Z,3.00
2023-03-05T14:55:21.778Z,3.00
2023-03-05T14:57:51.622Z,3.00
2023-03-05T15:00:22.084Z,3.00
2023-03-05T15:02:49.344Z,3.10
2023-03-05T15:05:17.353Z,3.10
2023-03-05T15:07:45.265Z,3.10
2023-03-05T15:10:18.124Z,3.10
2023-03-05T15:12:44.935Z,3.00
2023-03-05T15:15:14.413Z,2.90
2023-03-05T15:17:44.109Z,2.90
2023-03-05T15:20:24.179Z,2.90
2023-03-05T15:22:51.149Z,2.80
2023-03-05T15:25:19.416Z,2.80
2023-03-05T15:27:46.440Z,2.90
2023-03-05T15:30:41.335Z,2.90
2023-03-05T15:33:11.533Z,2.80
2023-03-05T15:35:38.672Z,2.90
2023-03-05T15:38:05.541Z,2.90
2023-03-05T15:40:33.024Z,2.70
2023-03-05T15:43:00.905Z,2.70
2023-03-05T15:45:31.261Z,2.80
2023-03-05T15:47:58.435Z,2.80
2023-03-05T15:50:25.277Z,2.70
2023-03-05T15:52:52.449Z,2.60
2023-03-05T15:55:19.433Z,2.60
2023-03-05T15:57:48.758Z,2.60
2023-03-05T16:00:17.867Z,2.60
2023-03-05T16:02:44.664Z,2.60
2023-03-05T16:05:11.621Z,2.60
2023-03-05T16:07:41.870Z,2.60
2023-03-05T16:10:12.955Z,2.50
2023-03-05T16:12:42.166Z,2.40
2023-03-05T16:15:15.946Z,2.50
2023-03-05T16:17:45.676Z,2.40
2023-03-05T16:20:13.537Z,2.40
2023-03-05T16:22:40.252Z,2.40
2023-03-05T16:25:07.534Z,2.40
2023-03-05T16:27:34.770Z,2.30
2023-03-05T16:30:01.888Z,2.40
2023-03-05T16:32:28.717Z,2.20
2023-03-05T16:34:55.485Z,2.10
2023-03-05T16:37:24.046Z,2.10
2023-03-05T16:39:51.880Z,2.10
2023-03-05T16:42:18.935Z,2.10
2023-03-05T16:44:47.359Z,2.10
2023-03-05T16:47:14.381Z,2.10
2023-03-05T16:49:41.234Z,2.10
2023-03-05T16:52:18.391Z,2.20
2023-03-05T16:54:46.975Z,2.20
2023-03-05T16:57:13.974Z,2.20
2023-03-05T16:59:41.340Z,2.20
2023-03-05T17:02:08.262Z,2.20
2023-03-05T17:04:35.589Z,2.20
2023-03-05T17:07:04.186Z,2.30
2023-03-05T17:09:31.166Z,2.30
2023-03-05T17:11:58.068Z,2.30
2023-03-05T17:14:25.134Z,2.20
2023-03-05T17:16:51.890Z,2.10
2023-03-05T17:19:19.095Z,2.00
2023-03-05T17:21:46.100Z,2.00
2023-03-05T17:24:12.971Z,2.00
2023-03-05T17:26:39.798Z,2.00
2023-03-05T17:29:07.439Z,1.90
2023-03-05T17:31:34.426Z,2.00
2023-03-05T17:34:01.314Z,2.00
2023-03-05T17:36:28.495Z,2.10
2023-03-05T17:38:55.362Z,2.10
2023-03-05T17:41:22.982Z,2.10
2023-03-05T17:43:51.336Z,2.00
2023-03-05T17:46:18.276Z,2.00
2023-03-05T17:48:45.349Z,1.90
2023-03-05T17:51:14.430Z,2.00
2023-03-05T17:53:41.242Z,2.10
2023-03-05T17:56:10.467Z,2.10
2023-03-05T17:58:37.492Z,2.00
2023-03-05T18:01:05.379Z,2.10
2023-03-05T18:03:32.619Z,2.10
2023-03-05T18:05:59.426Z,2.10
2023-03-05T18:08:26.275Z,2.00
2023-03-05T18:10:53.982Z,2.00
2023-03-05T18:13:20.848Z,1.90
2023-03-05T18:15:47.911Z,1.90
2023-03-05T18:18:17.024Z,1.90
2023-03-05T18:20:44.725Z,1.90
2023-03-05T18:23:11.887Z,1.80
2023-03-05T18:25:38.814Z,1.90
2023-03-05T18:28:15.763Z,1.90
2023-03-05T18:30:44.251Z,1.90
2023-03-05T18:33:19.098Z,1.80
2023-03-05T18:35:46.794Z,1.80
2023-03-05T18:38:13.616Z,1.80
2023-03-05T18:40:40.608Z,1.60
2023-03-05T18:43:07.468Z,1.60
2023-03-05T18:45:34.351Z,1.50
2023-03-05T18:48:01.153Z,1.60
2023-03-05T18:50:28.673Z,1.60
2023-03-05T18:52:55.873Z,1.50
2023-03-05T18:55:28.831Z,1.40
2023-03-05T18:57:55.847Z,1.40
2023-03-05T19:00:26.084Z,1.30
2023-03-05T19:02:53.941Z,1.40
2023-03-05T19:05:20.914Z,1.30
2023-03-05T19:07:47.999Z,1.30
2023-03-05T19:10:15.903Z,1.10
2023-03-05T19:12:49.732Z,1.10
2023-03-05T19:15:17.563Z,1.10
2023-03-05T19:17:44.422Z,1.10
2023-03-05T19:20:12.741Z,1.10
2023-03-05T19:22:39.795Z,1.00
2023-03-05T19:25:07.104Z,1.00
2023-03-05T19:27:33.937Z,0.90
2023-03-05T19:30:00.965Z,0.90
2023-03-05T19:32:27.887Z,0.80
2023-03-05T19:34:56.583Z,0.80
2023-03-05T19:37:23.579Z,0.80
2023-03-05T19:39:50.400Z,0.80
2023-03-05T19:42:17.358Z,0.80
2023-03-05T19:44:44.170Z,0.80
2023-03-05T19:47:11.221Z,0.80
2023-03-05T19:49:38.085Z,0.70
2023-03-05T19:52:06.310Z,0.60
2023-03-05T19:54:33.389Z,0.70
2023-03-05T19:57:00.264Z,0.70
2023-03-05T19:59:27.286Z,0.70
2023-03-05T20:01:54.335Z,0.70
2023-03-05T20:04:23.150Z,0.60
2023-03-05T20:06:50.405Z,0.60
2023-03-05T20:09:17.689Z,0.60
2023-03-05T20:11:45.526Z,0.50
2023-03-05T20:14:15.342Z,0.50
2023-03-05T20:16:43.422Z,0.50
2023-03-05T20:19:17.065Z,0.50
2023-03-05T20:21:44.928Z,0.50
2023-03-05T20:24:17.306Z,0.50
2023-03-05T20:26:46.324Z,0.50
2023-03-05T20:29:17.486Z,0.50
2023-03-05T20:31:45.148Z,0.40
2023-03-05T20:34:15.771Z,0.40
2023-03-05T20:36:42.642Z,0.40
2023-03-05T20:39:10.028Z,0.40
2023-03-05T20:41:39.024Z,0.40
2023-03-05T20:44:06.835Z,0.30
2023-03-05T20:46:36.826Z,0.20
2023-03-05T20:49:04.770Z,0.30
2023-03-05T20:51:36.741Z,0.20
2023-03-05T20:54:09.327Z,0.30
2023-03-05T20:56:36.567Z,0.10
2023-03-05T20:59:06.304Z,0.10
2023-03-05T21:01:34.321Z,0.10
2023-03-05T21:04:03.121Z,0.10
2023-03-05T21:06:31.472Z,0.10
2023-03-05T21:08:58.928Z,0.10
2023-03-05T21:11:26.355Z,0.20
2023-03-05T21:13:53.261Z,0.20
2023-03-05T21:16:23.780Z,0.20
2023-03-05T21:18:51.389Z,0.20
2023-03-05T21:21:18.909Z,0.10
2023-03-05T21:23:46.120Z,0.10
2023-03-05T21:26:13.574Z,0.00
2023-03-05T21:28:40.841Z,0.00
2023-03-05T21:31:10.990Z,0.00
2023-03-05T21:33:38.006Z,0.00
2023-03-05T21:36:05.192Z,0.00
2023-03-05T21:38:34.110Z,0.00
2023-03-05T21:41:02.394Z,-0.10
2023-03-05T21:43:31.201Z,0.00
2023-03-05T21:46:00.015Z,-0.10
2023-03-05T21:48:26.884Z,0.00
2023-03-05T21:50:55.209Z,0.00
2023-03-05T21:53:22.220Z,-0.10
2023-03-05T21:56:05.367Z,-0.10
2023-03-05T21:58:34.122Z,-0.10
2023-03-05T22:01:01.031Z,0.00
2023-03-05T22:03:28.463Z,-0.10
2023-03-05T22:05:56.003Z,-0.10
2023-03-05T22:08:23.586Z,0.00
2023-03-05T22:10:50.398Z,0.10
2023-03-05T22:13:17.972Z,0.30
2023-03-05T22:15:50.135Z,0.30
2023-03-05T22:18:28.694Z,0.30
2023-03-05T22:20:56.713Z,0.30
2023-03-05T22:23:25.544Z,0.30
2023-03-05T22:26:07.980Z,0.20
2023-03-05T22:28:36.176Z,0.30
2023-03-05T22:31:03.199Z,0.30
2023-03-05T22:33:30.798Z,0.30
2023-03-05T22:35:58.233Z,0.30
2023-03-05T22:38:25.408Z,0.30
2023-03-05T22:40:52.689Z,0.20
2023-03-05T22:43:20.176Z,0.20
2023-03-05T22:45:47.173Z,0.30
2023-03-05T22:48:14.326Z,0.30
2023-03-05T22:50:43.923Z,0.30
2023-03-05T22:53:12.123Z,0.30
2023-03-05T22:55:40.352Z,0.30
2023-03-05T22:58:07.194Z,0.20
2023-03-05T23:00:33.982Z,0.30
2023-03-05T23:03:00.964Z,0.30
2023-03-05T23:05:27.820Z,0.30
2023-03-05T23:07:54.619Z,0.30
2023-03-05T23:10:26.979Z,0.30
2023-03-05T23:12:55.620Z,0.30
2023-03-05T23:15:29.137Z,0.30
2023-03-05T23:17:56.530Z,0.40
2023-03-05T23:20:26.371Z,0.40
2023-03-05T23:22:55.980Z,0.40
2023-03-05T23:25:28.902Z,0.40
2023-03-05T23:27:57.978Z,0.50
2023-03-05T23:30:26.012Z,0.40
2023-03-05T23:33:07.990Z,0.40
2023-03-05T23:35:37.785Z,0.40
2023-03-05T23:38:07.805Z,0.30
2023-03-05T23:40:41.345Z,0.40
2023-03-05T23:43:08.650Z,0.50
2023-03-05T23:45:35.817Z,0.50
2023-03-05T23:48:02.673Z,0.40
2023-03-05T23:50:32.509Z,0.50
2023-03-05T23:53:01.870Z,0.60
2023-03-05T23:55:35.170Z,0.50
2023-03-05T23:58:02.281Z,0.50
